Time;durP1;ratioP1;P1;durP2;ratioP2;P2;SDS_P1;SDS_P2;PMS_P1;PMS_P2;Temp;Humidity;BMP_temperature;BMP_pressure;BME280_temperature;BME280_humidity;BME280_pressure;Samples;Min_cycle;Max_cycle;Signal;HPM_P1;HPM_P2
2022/11/01 00:01:59;;;;;;;128.50;95.30;;;;;;;6.76;100.00;99226.66;106355;1284;61245;-77
2022/11/01 00:04:26;;;;;;;127.30;95.30;;;;;;;6.74;100.00;99226.93;106323;1293;65018;-77
2022/11/01 00:06:52;;;;;;;134.30;101.80;;;;;;;6.72;100.00;99226.52;106344;1292;61086;-77
2022/11/01 00:09:20;;;;;;;131.50;98.40;;;;;;;6.70;100.00;99228.04;106334;1285;58869;-77
2022/11/01 00:11:47;;;;;;;122.50;98.90;;;;;;;6.67;100.00;99227.27;106351;1284;67024;-78
2022/11/01 00:14:15;;;;;;;127.00;96.30;;;;;;;6.66;100.00;99225.75;106345;1285;60994;-78
2022/11/01 00:16:42;;;;;;;169.30;101.40;;;;;;;6.66;100.00;99225.39;106253;1287;64801;-78
2022/11/01 00:19:10;;;;;;;182.10;106.70;;;;;;;6.67;100.00;99216.48;106340;1281;58941;-78
2022/11/01 00:21:37;;;;;;;149.40;101.20;;;;;;;6.71;100.00;99218.98;106035;1283;59914;-77
2022/11/01 00:24:04;;;;;;;140.10;103.20;;;;;;;6.72;100.00;99223.51;106326;1285;66989;-77
2022/11/01 00:26:31;;;;;;;147.80;100.00;;;;;;;6.73;100.00;99221.88;106057;1284;60220;-77
2022/11/01 00:28:57;;;;;;;166.00;105.40;;;;;;;6.74;100.00;99222.17;106348;1284;64783;-78
2022/11/01 00:31:24;;;;;;;164.40;101.70;;;;;;;6.75;100.00;99220.02;106233;1281;59211;-77
2022/11/01 00:33:51;;;;;;;169.60;100.10;;;;;;;6.75;100.00;99220.54;106336;1286;60012;-76
2022/11/01 00:36:18;;;;;;;164.30;99.30;;;;;;;6.75;100.00;99217.89;106350;1285;66017;-77
2022/11/01 00:38:48;;;;;;;142.50;100.10;;;;;;;6.75;100.00;99209.96;106354;1286;59879;-77
2022/11/01 00:41:15;;;;;;;160.70;104.50;;;;;;;6.77;100.00;99206.46;106324;1278;64840;-77
2022/11/01 00:43:42;;;;;;;161.80;108.00;;;;;;;6.81;100.00;99200.99;106349;1285;58784;-77
2022/11/01 00:46:09;;;;;;;138.90;101.20;;;;;;;6.87;100.00;99201.08;106257;1288;58864;-76
2022/11/01 00:48:35;;;;;;;143.50;100.40;;;;;;;6.92;100.00;99200.48;106330;1285;66013;-77
2022/11/01 00:51:02;;;;;;;143.30;104.00;;;;;;;6.97;100.00;99195.84;106338;1283;59848;-77
2022/11/01 00:53:28;;;;;;;132.30;98.20;;;;;;;7.00;100.00;99192.32;106333;1278;64016;-78
2022/11/01 00:56:00;;;;;;;169.10;103.50;;;;;;;7.02;100.00;99184.42;106354;1278;58853;-78
2022/11/01 00:58:27;;;;;;;174.80;103.90;;;;;;;7.07;100.00;99174.48;106381;1278;58847;-77
2022/11/01 01:00:53;;;;;;;148.60;97.80;;;;;;;7.13;100.00;99166.59;106315;1286;66999;-77
2022/11/01 01:03:20;;;;;;;148.30;92.50;;;;;;;7.18;100.00;99164.21;106326;1284;69042;-78
2022/11/01 01:05:49;;;;;;;144.70;91.80;;;;;;;7.22;100.00;99167.70;106356;1285;63899;-78
2022/11/01 01:08:15;;;;;;;137.10;87.40;;;;;;;7.28;100.00;99171.67;106310;1285;58981;-77
2022/11/01 01:10:42;;;;;;;135.50;86.50;;;;;;;7.32;100.00;99171.42;106336;1278;58775;-78
2022/11/01 01:13:09;;;;;;;132.10;77.40;;;;;;;7.37;100.00;99170.85;106321;1285;67019;-77
2022/11/01 01:15:37;;;;;;;118.10;74.60;;;;;;;7.41;100.00;99168.70;106328;1278;60085;-78
2022/11/01 01:18:05;;;;;;;127.50;72.70;;;;;;;7.45;100.00;99170.98;106246;1285;65057;-78
2022/11/01 01:20:31;;;;;;;128.40;72.90;;;;;;;7.49;100.00;99167.59;106361;1286;58855;-77
2022/11/01 01:22:58;;;;;;;121.70;72.80;;;;;;;7.53;100.00;99166.52;106323;1285;58964;-78
2022/11/01 01:25:25;;;;;;;128.30;73.40;;;;;;;7.56;100.00;99170.41;106321;1285;65802;-78
2022/11/01 01:27:51;;;;;;;126.10;71.40;;;;;;;7.59;100.00;99168.85;106328;1285;59584;-78
2022/11/01 01:30:18;;;;;;;118.00;69.90;;;;;;;7.62;100.00;99161.75;106030;1291;64765;-77
2022/11/01 01:32:44;;;;;;;95.20;55.60;;;;;;;7.66;100.00;99162.79;106334;1278;58855;-77
2022/11/01 01:35:11;;;;;;;94.60;53.60;;;;;;;7.69;100.00;99164.40;106341;1285;58913;-77
2022/11/01 01:37:38;;;;;;;96.60;46.30;;;;;;;7.72;100.00;99165.86;106325;1285;65748;-77
2022/11/01 01:40:07;;;;;;;118.10;44.40;;;;;;;7.73;100.00;99164.92;106338;1278;60054;-77
2022/11/01 01:42:39;;;;;;;97.40;43.90;;;;;;;7.74;100.00;99165.41;106334;1285;63988;-77
2022/11/01 01:45:33;;;;;;;76.80;43.70;;;;;;;7.74;100.00;99159.91;106106;1296;58980;-77
2022/11/01 01:48:18;;;;;;;68.80;40.50;;;;;;;7.76;100.00;99158.58;106347;1285;58997;-77
2022/11/01 01:50:50;;;;;;;67.40;41.30;;;;;;;7.78;100.00;99157.55;106387;1278;65834;-78
2022/11/01 01:53:41;;;;;;;88.30;45.50;;;;;;;7.80;100.00;99151.29;106341;1284;59783;-78
2022/11/01 01:56:14;;;;;;;90.70;42.50;;;;;;;7.82;100.00;99147.64;106339;1278;64046;-77
2022/11/01 01:58:50;;;;;;;98.10;41.20;;;;;;;7.83;100.00;99149.53;106352;1285;58817;-78
2022/11/01 02:01:17;;;;;;;135.00;40.10;;;;;;;7.85;100.00;99149.27;106335;1278;58880;-78
2022/11/01 02:03:44;;;;;;;119.00;38.40;;;;;;;7.85;100.00;99141.08;106336;1285;67040;-77
2022/11/01 02:06:14;;;;;;;89.10;38.30;;;;;;;7.87;100.00;99138.19;106358;1285;60209;-78
2022/11/01 02:08:52;;;;;;;95.20;40.00;;;;;;;7.89;100.00;99140.55;106335;1278;63758;-78
2022/11/01 02:11:20;;;;;;;94.30;33.40;;;;;;;7.91;100.00;99146.77;106231;1287;58924;-78
2022/11/01 02:13:48;;;;;;;73.40;29.50;;;;;;;7.93;100.00;99146.17;106363;1285;58810;-78
2022/11/01 02:16:50;;;;;;;89.00;23.90;;;;;;;7.96;100.00;99144.98;106329;1278;72645;-77
2022/11/01 02:19:41;;;;;;;67.50;24.30;;;;;;;7.98;100.00;99145.73;105648;1294;61003;-77
2022/11/01 02:22:23;;;;;;;71.00;25.20;;;;;;;8.01;100.00;99146.30;105793;1285;62632;-77
2022/11/01 02:25:26;;;;;;;76.30;24.10;;;;;;;8.03;100.00;99142.80;105600;1298;59008;-77
2022/11/01 02:28:10;;;;;;;79.10;24.30;;;;;;;8.05;100.00;99135.24;105664;1294;58980;-77
2022/11/01 02:31:02;;;;;;;81.50;22.90;;;;;;;8.08;100.00;99135.45;105721;1294;67214;-78
2022/11/01 02:33:44;;;;;;;107.70;21.90;;;;;;;8.11;100.00;99136.15;105786;1285;60988;-78
2022/11/01 02:36:19;;;;;;;72.10;21.10;;;;;;;8.14;100.00;99134.40;105773;1284;64081;-77
2022/11/01 02:38:50;;;;;;;99.30;22.10;;;;;;;8.17;100.00;99135.67;105758;1292;58908;-77
2022/11/01 02:41:31;;;;;;;80.40;22.00;;;;;;;8.19;100.00;99136.08;105758;1290;59004;-78
2022/11/01 02:44:02;;;;;;;77.70;27.10;;;;;;;8.22;100.00;99135.60;105755;1292;67028;-77
2022/11/01 02:47:00;;;;;;;108.40;26.60;;;;;;;8.24;100.00;99128.71;105773;1291;60882;-77
2022/11/01 02:49:48;;;;;;;67.70;27.30;;;;;;;8.27;100.00;99127.69;105757;1294;64909;-77
2022/11/01 02:52:19;;;;;;;71.20;25.50;;;;;;;8.29;100.00;99138.36;105768;1299;58864;-77
2022/11/01 02:54:59;;;;;;;56.70;24.20;;;;;;;8.31;100.00;99133.79;105777;1294;58875;-77
2022/11/01 02:57:36;;;;;;;55.20;24.40;;;;;;;8.34;100.00;99134.73;106082;1292;64794;-77
2022/11/01 03:00:32;;;;;;;63.90;23.80;;;;;;;8.37;100.00;99139.90;106129;1281;61007;-76
2022/11/01 03:03:20;;;;;;;56.20;22.50;;;;;;;8.40;100.00;99135.88;106348;1286;63990;-77
2022/11/01 03:06:00;;;;;;;45.20;24.00;;;;;;;8.42;100.00;99129.88;106090;1288;58912;-77
2022/11/01 03:08:35;;;;;;;51.20;23.60;;;;;;;8.46;100.00;99124.35;106388;1284;58875;-77
2022/11/01 03:11:22;;;;;;;58.20;23.30;;;;;;;8.49;100.00;99130.05;106338;1270;67038;-77
2022/11/01 03:14:08;;;;;;;52.10;21.20;;;;;;;8.52;100.00;99134.82;106355;1285;59890;-77
2022/11/01 03:16:56;;;;;;;49.70;23.40;;;;;;;8.54;100.00;99139.66;106330;1285;64113;-77
2022/11/01 03:19:35;;;;;;;61.50;22.40;;;;;;;8.56;100.00;99137.06;106349;1285;58856;-78
2022/11/01 03:22:04;;;;;;;52.80;23.10;;;;;;;8.60;100.00;99130.84;106322;1276;58979;-77
2022/11/01 03:24:38;;;;;;;65.40;22.00;;;;;;;8.63;100.00;99128.90;106348;1285;65954;-77
2022/11/01 03:27:11;;;;;;;77.60;23.10;;;;;;;8.64;100.00;99124.02;106382;1278;60965;-77
2022/11/01 03:29:41;;;;;;;57.20;22.30;;;;;;;8.66;100.00;99128.00;106349;1282;64452;-75
2022/11/01 03:32:08;;;;;;;76.80;27.50;;;;;;;8.68;100.00;99130.17;106334;1285;59265;-76
2022/11/01 03:34:38;;;;;;;68.80;23.70;;;;;;;8.70;100.00;99128.48;106358;1286;58868;-76
2022/11/01 03:37:10;;;;;;;84.00;23.90;;;;;;;8.72;100.00;99129.77;106324;1276;67025;-77
2022/11/01 03:39:44;;;;;;;66.70;24.20;;;;;;;8.75;100.00;99128.55;106124;1284;60137;-77
2022/11/01 03:42:15;;;;;;;69.60;24.00;;;;;;;8.77;100.00;99130.39;106352;1278;65201;-76
2022/11/01 03:44:54;;;;;;;62.60;24.60;;;;;;;8.79;100.00;99133.27;106319;1278;59014;-76
2022/11/01 03:47:21;;;;;;;60.90;25.60;;;;;;;8.81;100.00;99137.07;105829;1294;58856;-77
2022/11/01 03:50:18;;;;;;;56.20;22.60;;;;;;;8.83;100.00;99135.52;106350;1285;67072;-76
2022/11/01 03:52:46;;;;;;;53.30;26.90;;;;;;;8.86;100.00;99137.35;106033;1283;60982;-77
2022/11/01 03:55:17;;;;;;;74.90;32.10;;;;;;;8.88;100.00;99132.95;106345;1278;65077;-76
2022/11/01 03:57:48;;;;;;;74.60;34.00;;;;;;;8.90;100.00;99122.55;106329;1285;58786;-77
2022/11/01 04:00:23;;;;;;;61.30;33.70;;;;;;;8.93;100.00;99118.32;106360;1286;58852;-77
2022/11/01 04:02:52;;;;;;;69.60;38.30;;;;;;;8.96;100.00;99118.14;106340;1285;67076;-78
2022/11/01 04:05:20;;;;;;;90.50;38.40;;;;;;;8.99;100.00;99118.29;106353;1278;61041;-78
2022/11/01 04:07:47;;;;;;;109.00;43.20;;;;;;;9.02;100.00;99118.31;106089;1288;65049;-77
2022/11/01 04:10:14;;;;;;;80.00;41.20;;;;;;;9.05;100.00;99115.86;106102;1293;58888;-78
2022/11/01 04:12:44;;;;;;;90.20;39.50;;;;;;;9.07;100.00;99111.45;106344;1285;59184;-77
2022/11/01 04:21:09;;;;;;;62.50;37.10;;;;;;;9.12;100.00;99105.30;106331;1285;64120;-78
2022/11/01 04:23:36;;;;;;;62.20;39.30;;;;;;;9.14;100.00;99100.98;105998;1288;322238;-77
2022/11/01 04:26:04;;;;;;;70.70;43.00;;;;;;;9.15;100.00;99102.63;106362;1281;58705;-78
2022/11/01 04:28:31;;;;;;;76.20;43.70;;;;;;;9.17;100.00;99097.73;106329;1285;66983;-77
2022/11/01 04:30:57;;;;;;;69.70;43.20;;;;;;;9.19;100.00;99096.74;106332;1284;59945;-78
2022/11/01 04:33:24;;;;;;;67.70;42.80;;;;;;;9.20;100.00;99097.91;106352;1292;62555;-78
2022/11/01 04:35:51;;;;;;;67.80;42.90;;;;;;;9.22;100.00;99098.33;106335;1285;58947;-78
2022/11/01 04:38:17;;;;;;;64.40;42.70;;;;;;;9.22;100.00;99095.15;106351;1285;59233;-78
2022/11/01 04:40:44;;;;;;;63.40;42.30;;;;;;;9.23;100.00;99098.99;106053;1275;67048;-78
2022/11/01 04:43:11;;;;;;;71.10;45.60;;;;;;;9.24;100.00;99095.92;106353;1277;60983;-77
2022/11/01 04:45:38;;;;;;;78.90;49.80;;;;;;;9.24;100.00;99095.39;106235;1285;65053;-78
2022/11/01 04:48:14;;;;;;;73.40;47.30;;;;;;;9.25;100.00;99091.63;106339;1278;59100;-77
2022/11/01 04:50:42;;;;;;;70.60;47.40;;;;;;;9.26;100.00;99091.73;106330;1285;58715;-77
2022/11/01 04:53:09;;;;;;;69.60;47.10;;;;;;;9.27;100.00;99090.42;106084;1282;66018;-77
2022/11/01 04:55:36;;;;;;;68.80;44.60;;;;;;;9.28;100.00;99087.89;106364;1276;60231;-78
2022/11/01 04:58:03;;;;;;;68.50;45.90;;;;;;;9.28;100.00;99087.52;106326;1285;65537;-77
2022/11/01 05:00:31;;;;;;;67.20;43.00;;;;;;;9.28;100.00;99082.90;106025;1291;58953;-77
2022/11/01 05:03:03;;;;;;;56.10;40.00;;;;;;;9.28;100.00;99081.66;106232;1279;58878;-77
2022/11/01 05:05:30;;;;;;;64.70;42.80;;;;;;;9.28;100.00;99077.75;106334;1278;66980;-77
2022/11/01 05:08:08;;;;;;;58.00;40.60;;;;;;;9.30;100.00;99072.17;106358;1285;60928;-78
2022/11/01 05:10:38;;;;;;;60.10;42.70;;;;;;;9.31;100.00;99064.98;106327;1291;65045;-78
2022/11/01 05:13:05;;;;;;;55.70;40.90;;;;;;;9.33;100.00;99067.88;106344;1285;58909;-78
2022/11/01 05:15:32;;;;;;;60.10;41.00;;;;;;;9.36;100.00;99077.30;106357;1284;58994;-77
2022/11/01 05:18:00;;;;;;;62.10;43.40;;;;;;;9.37;100.00;99080.05;106332;1285;66998;-78
2022/11/01 05:20:28;;;;;;;58.50;41.00;;;;;;;9.39;100.00;99074.96;106361;1284;60087;-78
2022/11/01 05:22:59;;;;;;;62.90;44.40;;;;;;;9.41;100.00;99072.70;106343;1285;64195;-77
2022/11/01 05:25:27;;;;;;;64.50;43.40;;;;;;;9.44;100.00;99074.86;106332;1285;58916;-77
2022/11/01 05:28:12;;;;;;;62.70;44.50;;;;;;;9.45;100.00;99078.30;106362;1285;59028;-77
2022/11/01 05:30:40;;;;;;;65.60;45.50;;;;;;;9.47;100.00;99078.60;106353;1285;67133;-77
2022/11/01 05:33:09;;;;;;;66.00;44.80;;;;;;;9.48;100.00;99079.43;106229;1281;59029;-77
2022/11/01 05:35:36;;;;;;;55.70;42.20;;;;;;;9.48;100.00;99075.48;106338;1285;64971;-77
2022/11/01 05:38:03;;;;;;;62.10;43.30;;;;;;;9.50;100.00;99078.39;106093;1288;58915;-77
2022/11/01 05:40:30;;;;;;;54.90;40.60;;;;;;;9.52;100.00;99081.98;106246;1285;58868;-77
2022/11/01 05:42:57;;;;;;;51.50;38.60;;;;;;;9.54;100.00;99082.89;106336;1279;66187;-77
2022/11/01 05:45:24;;;;;;;50.40;38.20;;;;;;;9.57;100.00;99086.98;106045;1291;61018;-76
2022/11/01 05:47:51;;;;;;;45.70;34.70;;;;;;;9.59;100.00;99083.48;106206;1281;64972;-77
2022/11/01 05:50:17;;;;;;;45.20;35.40;;;;;;;9.62;100.00;99077.30;106321;1285;59203;-77
2022/11/01 05:52:44;;;;;;;44.60;35.20;;;;;;;9.65;100.00;99075.52;106334;1278;58916;-77
2022/11/01 05:55:11;;;;;;;45.80;35.10;;;;;;;9.68;100.00;99077.59;106341;1285;65979;-77
2022/11/01 05:57:37;;;;;;;43.30;35.20;;;;;;;9.73;100.00;99070.94;106366;1285;60980;-76
2022/11/01 06:00:05;;;;;;;42.20;34.30;;;;;;;9.77;100.00;99069.09;106329;1286;65045;-77
2022/11/01 06:02:32;;;;;;;42.10;34.30;;;;;;;9.81;100.00;99062.99;106069;1288;59000;-77
2022/11/01 06:04:59;;;;;;;42.10;33.30;;;;;;;9.86;100.00;99064.48;106301;1285;58731;-77
2022/11/01 06:07:26;;;;;;;40.60;33.60;;;;;;;9.92;100.00;99071.54;106329;1278;67117;-77
2022/11/01 06:09:53;;;;;;;37.70;30.80;;;;;;;9.98;100.00;99072.07;106348;1284;58938;-76
2022/11/01 06:12:22;;;;;;;40.90;33.50;;;;;;;10.02;100.00;99073.20;106331;1285;65035;-77
2022/11/01 06:14:49;;;;;;;40.90;33.10;;;;;;;10.07;100.00;99072.52;106246;1295;58978;-77
2022/11/01 06:17:15;;;;;;;36.70;30.80;;;;;;;10.12;100.00;99075.58;106355;1285;59146;-77
2022/11/01 06:19:42;;;;;;;34.10;29.70;;;;;;;10.16;100.00;99080.29;106345;1286;64602;-77
2022/11/01 06:22:08;;;;;;;37.30;28.80;;;;;;;10.20;100.00;99077.17;106352;1285;60107;-76
2022/11/01 06:24:35;;;;;;;33.30;28.50;;;;;;;10.24;100.00;99071.09;106335;1284;64034;-77
2022/11/01 06:27:02;;;;;;;32.30;27.90;;;;;;;10.30;100.00;99067.37;106020;1289;59059;-77
2022/11/01 06:29:28;;;;;;;33.40;29.50;;;;;;;10.40;100.00;99069.58;106350;1278;58771;-77
2022/11/01 06:31:55;;;;;;;35.20;29.00;;;;;;;10.49;100.00;99074.83;106322;1286;66817;-78
2022/11/01 06:34:21;;;;;;;31.90;28.40;;;;;;;10.57;100.00;99078.23;106361;1282;60134;-78
2022/11/01 06:36:48;;;;;;;36.70;32.40;;;;;;;10.65;100.00;99077.35;106346;1293;65037;-76
2022/11/01 06:39:16;;;;;;;39.80;35.20;;;;;;;10.71;100.00;99078.16;106346;1285;58935;-76
2022/11/01 06:41:43;;;;;;;35.20;31.40;;;;;;;10.78;100.00;99072.77;106075;1288;60741;-78
2022/11/01 06:44:09;;;;;;;33.50;29.50;;;;;;;10.84;100.00;99068.80;106356;1285;66820;-77
2022/11/01 06:46:36;;;;;;;31.10;27.50;;;;;;;10.95;100.00;99065.04;106345;1284;59749;-77
2022/11/01 06:49:02;;;;;;;30.10;26.20;;;;;;;11.04;100.00;99063.53;106355;1286;62684;-77
2022/11/01 06:51:29;;;;;;;30.20;26.40;;;;;;;11.09;100.00;99061.02;106335;1278;58939;-76
2022/11/01 06:53:55;;;;;;;30.10;27.10;;;;;;;11.17;100.00;99058.39;106347;1284;58873;-77
2022/11/01 06:56:22;;;;;;;30.70;27.50;;;;;;;11.23;100.00;99065.64;106227;1279;67087;-78
2022/11/01 06:58:49;;;;;;;30.90;26.30;;;;;;;11.29;100.00;99067.20;106058;1284;59296;-77
2022/11/01 07:01:20;;;;;;;29.90;26.10;;;;;;;11.36;100.00;99073.12;106249;1284;63980;-77
2022/11/01 07:03:50;;;;;;;28.20;25.00;;;;;;;11.41;100.00;99079.13;106329;1278;59232;-76
2022/11/01 07:06:18;;;;;;;28.30;25.30;;;;;;;11.40;100.00;99080.80;106354;1285;58907;-77
2022/11/01 07:08:45;;;;;;;28.50;25.50;;;;;;;11.38;100.00;99075.93;106338;1278;67033;-76
2022/11/01 07:11:12;;;;;;;30.60;27.00;;;;;;;11.39;100.00;99077.10;106352;1285;58932;-77
2022/11/01 07:13:38;;;;;;;28.70;24.50;;;;;;;11.41;100.00;99070.94;106313;1284;63917;-78
2022/11/01 07:16:06;;;;;;;30.20;26.80;;;;;;;11.46;100.00;99073.27;106350;1285;59279;-78
2022/11/01 07:18:33;;;;;;;26.80;23.90;;;;;;;11.56;100.00;99078.62;106349;1286;59117;-78
2022/11/01 07:21:02;;;;;;;27.80;24.90;;;;;;;11.64;100.00;99071.46;106345;1278;65891;-78
2022/11/01 07:23:28;;;;;;;28.60;23.60;;;;;;;11.74;100.00;99072.79;106374;1284;61004;-78
2022/11/01 07:25:55;;;;;;;27.00;23.50;;;;;;;11.86;100.00;99079.05;106342;1285;65051;-77
2022/11/01 07:28:23;;;;;;;26.40;23.50;;;;;;;11.88;100.00;99078.40;106330;1285;58905;-78
2022/11/01 07:30:51;;;;;;;25.30;22.60;;;;;;;11.83;100.00;99080.09;106343;1274;58836;-77
2022/11/01 07:33:19;;;;;;;26.10;22.50;;;;;;;11.81;100.00;99083.67;106320;1278;67004;-79
2022/11/01 07:35:47;;;;;;;26.70;23.80;;;;;;;11.79;100.00;99081.45;106345;1284;61323;-77
2022/11/01 07:38:14;;;;;;;24.40;21.90;;;;;;;11.83;100.00;99077.61;106332;1285;64092;-78
2022/11/01 07:40:41;;;;;;;25.40;22.70;;;;;;;11.88;100.00;99078.73;106241;1279;58994;-78
2022/11/01 07:43:07;;;;;;;24.00;21.50;;;;;;;11.91;100.00;99076.76;106106;1281;59036;-79
2022/11/01 07:45:34;;;;;;;26.50;22.20;;;;;;;11.90;100.00;99075.61;106336;1279;66124;-78
2022/11/01 07:48:09;;;;;;;24.60;22.20;;;;;;;11.86;100.00;99072.10;106348;1285;60898;-77
2022/11/01 07:50:37;;;;;;;26.80;22.50;;;;;;;11.81;100.00;99071.90;106342;1285;65227;-77
2022/11/01 07:53:06;;;;;;;24.30;21.80;;;;;;;11.72;100.00;99068.23;106320;1285;58933;-78
2022/11/01 07:55:34;;;;;;;25.90;23.10;;;;;;;11.70;100.00;99068.41;106233;1288;58730;-77
2022/11/01 07:58:02;;;;;;;27.40;24.40;;;;;;;11.75;100.00;99075.01;106345;1277;67032;-76
2022/11/01 08:00:28;;;;;;;26.30;23.30;;;;;;;11.79;100.00;99073.44;106335;1284;60225;-78
2022/11/01 08:03:00;;;;;;;24.30;21.40;;;;;;;11.78;100.00;99074.77;106339;1292;65112;-77
2022/11/01 08:05:27;;;;;;;24.20;21.70;;;;;;;11.77;100.00;99072.87;106352;1286;59054;-77
2022/11/01 08:07:54;;;;;;;28.00;23.20;;;;;;;11.77;100.00;99067.36;106352;1286;58985;-78
2022/11/01 08:10:22;;;;;;;25.40;22.70;;;;;;;11.83;100.00;99065.57;106351;1282;66038;-78
2022/11/01 08:12:48;;;;;;;24.20;21.60;;;;;;;11.92;100.00;99058.86;106345;1278;60964;-77
2022/11/01 08:15:15;;;;;;;24.70;22.10;;;;;;;11.96;100.00;99053.92;106304;1286;63927;-77
2022/11/01 08:17:41;;;;;;;23.70;21.20;;;;;;;12.03;100.00;99053.99;106322;1285;58996;-76
2022/11/01 08:20:08;;;;;;;23.30;20.80;;;;;;;12.12;100.00;99053.20;106352;1284;58893;-77
2022/11/01 08:22:39;;;;;;;23.50;20.90;;;;;;;12.17;100.00;99056.89;106317;1284;66018;-77
2022/11/01 08:25:06;;;;;;;23.70;21.30;;;;;;;12.20;100.00;99062.17;106046;1284;60698;-76
2022/11/01 08:27:33;;;;;;;21.30;19.10;;;;;;;12.24;100.00;99068.82;106338;1285;65052;-77
2022/11/01 08:29:59;;;;;;;20.60;18.60;;;;;;;12.26;100.00;99065.98;106320;1293;59315;-77
2022/11/01 08:32:26;;;;;;;20.20;18.20;;;;;;;12.28;100.00;99062.68;106357;1285;58803;-80
2022/11/01 08:34:52;;;;;;;18.90;17.00;;;;;;;12.32;100.00;99067.39;106099;1288;65487;-77
2022/11/01 08:37:19;;;;;;;17.60;15.90;;;;;;;12.34;100.00;99070.84;106372;1285;59974;-77
2022/11/01 08:39:45;;;;;;;16.10;14.60;;;;;;;12.35;100.00;99066.60;106101;1286;63810;-76
2022/11/01 08:42:12;;;;;;;18.50;16.10;;;;;;;12.39;100.00;99067.38;106345;1286;59247;-78
2022/11/01 08:44:39;;;;;;;17.30;14.80;;;;;;;12.45;100.00;99070.40;106367;1284;58861;-78
2022/11/01 08:47:05;;;;;;;18.00;16.10;;;;;;;12.53;100.00;99067.63;106374;1285;67000;-77
2022/11/01 08:49:32;;;;;;;17.90;14.40;;;;;;;12.68;100.00;99062.95;106367;1286;60797;-78
2022/11/01 08:51:59;;;;;;;16.50;14.20;;;;;;;12.80;100.00;99067.59;106334;1285;64012;-77
2022/11/01 08:54:25;;;;;;;15.40;13.90;;;;;;;12.89;100.00;99070.95;106337;1286;58927;-78
2022/11/01 08:56:52;;;;;;;15.20;12.80;;;;;;;13.02;100.00;99068.73;106338;1278;58700;-78
2022/11/01 08:59:19;;;;;;;14.60;12.10;;;;;;;13.16;100.00;99069.47;106352;1279;67035;-77
2022/11/01 09:01:45;;;;;;;12.90;11.60;;;;;;;13.23;100.00;99065.01;106358;1280;60942;-77
2022/11/01 09:04:12;;;;;;;11.50;10.30;;;;;;;13.30;100.00;99067.35;106020;1291;72222;-78
2022/11/01 09:06:39;;;;;;;13.90;9.70;;;;;;;13.40;100.00;99072.65;106338;1286;58904;-78
2022/11/01 09:09:06;;;;;;;10.80;8.50;;;;;;;13.53;100.00;99069.87;106339;1285;58865;-76
2022/11/01 09:11:33;;;;;;;9.90;8.40;;;;;;;13.67;100.00;99063.45;105963;1291;65966;-76
2022/11/01 09:14:00;;;;;;;12.70;8.20;;;;;;;13.80;100.00;99057.91;106304;1286;60025;-77
2022/11/01 09:16:26;;;;;;;10.20;7.70;;;;;;;13.94;100.00;99054.14;106285;1291;65297;-79
2022/11/01 09:18:53;;;;;;;12.40;8.20;;;;;;;14.10;100.00;99050.05;106288;1286;58875;-79
2022/11/01 09:21:20;;;;;;;11.10;8.20;;;;;;;14.27;100.00;99044.89;106307;1288;58912;-78
2022/11/01 09:23:46;;;;;;;9.90;7.90;;;;;;;14.45;100.00;99048.25;106301;1284;67006;-78
2022/11/01 09:26:13;;;;;;;9.00;7.50;;;;;;;14.61;100.00;99052.13;106299;1278;60704;-78
2022/11/01 09:28:40;;;;;;;9.20;7.60;;;;;;;14.73;100.00;99056.10;106298;1285;64986;-77
2022/11/01 09:31:11;;;;;;;10.90;7.50;;;;;;;14.88;100.00;99053.43;106303;1286;58967;-78
2022/11/01 09:33:38;;;;;;;9.10;8.00;;;;;;;15.06;100.00;99052.53;106299;1284;58961;-75
2022/11/01 09:36:05;;;;;;;11.90;7.50;;;;;;;15.27;100.00;99055.85;106310;1284;65687;-78
2022/11/01 09:38:31;;;;;;;9.80;7.00;;;;;;;15.49;100.00;99051.67;106304;1285;60922;-77
2022/11/01 09:41:05;;;;;;;8.10;7.00;;;;;;;15.63;100.00;99049.79;106280;1285;64865;-77
2022/11/01 09:43:36;;;;;;;9.30;7.30;;;;;;;15.61;100.00;99055.12;106296;1284;59086;-78
2022/11/01 09:46:04;;;;;;;7.20;6.10;;;;;;;15.54;100.00;99059.86;106014;1291;59030;-78
2022/11/01 09:48:35;;;;;;;11.20;6.40;;;;;;;15.44;100.00;99057.48;106026;1287;66249;-78
2022/11/01 09:51:06;;;;;;;8.30;6.80;;;;;;;15.33;100.00;99062.70;106033;1285;61384;-77
2022/11/01 09:53:34;;;;;;;10.10;6.00;;;;;;;15.23;100.00;99065.41;106297;1285;64051;-76
2022/11/01 09:56:09;;;;;;;9.90;7.10;;;;;;;15.16;100.00;99068.49;106282;1286;58908;-77
2022/11/01 09:58:50;;;;;;;8.50;6.60;;;;;;;15.12;100.00;99064.53;106292;1284;59238;-77
2022/11/01 10:01:25;;;;;;;8.80;6.90;;;;;;;15.05;100.00;99071.38;106299;1278;66974;-78
2022/11/01 10:03:55;;;;;;;9.70;7.60;;;;;;;14.98;100.00;99076.29;106309;1285;61138;-77
2022/11/01 10:06:26;;;;;;;9.10;7.10;;;;;;;14.98;100.00;99078.59;106301;1286;65174;-77
2022/11/01 10:09:04;;;;;;;9.10;6.80;;;;;;;15.05;100.00;99079.77;106314;1285;58799;-77
2022/11/01 10:11:49;;;;;;;8.80;6.70;;;;;;;15.19;100.00;99080.20;106354;1284;58748;-78
2022/11/01 10:14:39;;;;;;;9.00;6.40;;;;;;;15.32;100.00;99077.85;106327;1286;67103;-78
2022/11/01 10:17:18;;;;;;;11.70;7.60;;;;;;;15.45;100.00;99071.02;106125;1289;60026;-77
2022/11/01 10:19:49;;;;;;;10.30;6.70;;;;;;;15.51;100.00;99066.60;106345;1284;65129;-78
2022/11/01 10:22:22;;;;;;;12.00;7.10;;;;;;;15.57;100.00;99063.87;106311;1284;60714;-78
2022/11/01 10:25:00;;;;;;;11.10;7.00;;;;;;;15.64;100.00;99059.18;106315;1283;58838;-77
2022/11/01 10:27:35;;;;;;;9.60;6.90;;;;;;;15.74;100.00;99063.19;106319;1286;66804;-78
2022/11/01 10:30:05;;;;;;;12.70;7.20;;;;;;;15.79;100.00;99060.76;106119;1288;61162;-77
2022/11/01 10:33:00;;;;;;;11.40;7.30;;;;;;;15.78;100.00;99059.97;106324;1286;62990;-78
2022/11/01 10:35:56;;;;;;;7.80;6.70;;;;;;;15.83;100.00;99058.10;106345;1285;58909;-78
2022/11/01 10:38:36;;;;;;;7.30;5.70;;;;;;;15.85;100.00;99054.00;105758;1287;58876;-78
2022/11/01 10:41:08;;;;;;;8.40;6.10;;;;;;;15.87;100.00;99050.45;105753;1294;67026;-78
2022/11/01 10:43:44;;;;;;;7.70;6.20;;;;;;;15.92;100.00;99056.94;105767;1294;60000;-76
2022/11/01 10:46:16;;;;;;;7.30;6.60;;;;;;;15.98;100.00;99054.48;105740;1297;64991;-77
2022/11/01 10:49:06;;;;;;;8.80;6.60;;;;;;;15.91;100.00;99056.88;105750;1294;59089;-78
2022/11/01 10:51:34;;;;;;;9.10;6.90;;;;;;;15.76;100.00;99058.19;105047;1306;58912;-76
2022/11/01 10:54:04;;;;;;;12.20;7.00;;;;;;;15.64;100.00;99053.81;105301;1298;67259;-76
2022/11/01 10:56:36;;;;;;;7.60;6.40;;;;;;;15.51;100.00;99054.54;105066;1303;60169;-77
2022/11/01 10:59:09;;;;;;;10.50;6.80;;;;;;;15.43;100.00;99056.13;105267;1299;63993;-78
2022/11/01 11:01:41;;;;;;;11.20;6.70;;;;;;;15.39;100.00;99055.04;105257;1298;58921;-77
2022/11/01 11:04:13;;;;;;;8.00;5.90;;;;;;;15.39;100.00;99055.07;105181;1300;58855;-77
2022/11/01 11:06:41;;;;;;;10.80;6.60;;;;;;;15.46;100.00;99049.27;105283;1298;67174;-78
2022/11/01 11:09:23;;;;;;;8.50;6.90;;;;;;;15.56;100.00;99051.44;105285;1300;61218;-78
2022/11/01 11:11:54;;;;;;;10.10;6.10;;;;;;;15.63;100.00;99046.70;105234;1300;64011;-78
2022/11/01 11:14:21;;;;;;;7.60;6.10;;;;;;;15.73;100.00;99049.64;105231;1299;58939;-78
2022/11/01 11:16:52;;;;;;;10.00;5.80;;;;;;;15.77;100.00;99049.86;105643;1287;58874;-77
2022/11/01 11:19:30;;;;;;;8.60;6.30;;;;;;;15.73;100.00;99042.52;105643;1293;67679;-79
2022/11/01 11:21:58;;;;;;;9.10;6.20;;;;;;;15.71;100.00;99045.52;105668;1293;59860;-78
2022/11/01 11:24:34;;;;;;;10.70;7.30;;;;;;;15.68;100.00;99045.20;105646;1292;65274;-78
2022/11/01 11:27:09;;;;;;;8.30;6.50;;;;;;;15.65;100.00;99042.61;105669;1293;58976;-78
2022/11/01 11:29:44;;;;;;;9.20;6.00;;;;;;;15.65;100.00;99040.16;106109;1284;58922;-76